createdAt,value
2022-08-14T00:00:09.778Z,1008.33
2022-08-14T00:00:36.014Z,1008.33
2022-08-14T00:00:57.582Z,1008.33
2022-08-14T00:01:31.146Z,1008.33
2022-08-14T00:02:02.418Z,1008.13
2022-08-14T00:02:33.468Z,1008.13
2022-08-14T00:03:05.401Z,1008.02
2022-08-14T00:03:36.357Z,1008.02
2022-08-14T00:04:32.008Z,1008.02
2022-08-14T00:04:41.994Z,1008.13
2022-08-14T00:05:13.484Z,1008.13
2022-08-14T00:05:35.252Z,1008.02
2022-08-14T00:06:01.965Z,1008.02
2022-08-14T00:06:33.521Z,1008.02
2022-08-14T00:07:06.071Z,1008.02
2022-08-14T00:07:35.302Z,1008.13
2022-08-14T00:07:53.574Z,1008.13
2022-08-14T00:08:44.931Z,1008.13
2022-08-14T00:08:59.280Z,1007.92
2022-08-14T00:09:29.526Z,1007.92
2022-08-14T00:10:49.864Z,1008.02
2022-08-14T00:11:06.448Z,1008.02
2022-08-14T00:11:35.248Z,1008.13
2022-08-14T00:11:55.304Z,1008.13
2022-08-14T00:12:33.762Z,1008.13
2022-08-14T00:12:57.597Z,1008.02
2022-08-14T00:13:31.012Z,1008.02
2022-08-14T00:14:02.196Z,1008.02
2022-08-14T00:14:33.343Z,1008.02
2022-08-14T00:15:06.401Z,1008.02
2022-08-14T00:15:37.346Z,1008.02
2022-08-14T00:15:53.597Z,1008.02
2022-08-14T00:16:41.183Z,1008.02
2022-08-14T00:16:57.668Z,1007.92
2022-08-14T00:17:29.484Z,1007.92
2022-08-14T00:18:01.947Z,1007.92
2022-08-14T00:19:05.987Z,1007.92
2022-08-14T00:19:21.838Z,1007.92
2022-08-14T00:19:53.486Z,1007.82
2022-08-14T00:20:29.237Z,1007.82
2022-08-14T00:20:44.338Z,1007.82
2022-08-14T00:21:14.291Z,1007.82
2022-08-14T00:21:36.366Z,1007.92
2022-08-14T00:22:01.937Z,1007.92
2022-08-14T00:22:56.039Z,1007.92
2022-08-14T00:23:12.254Z,1007.92
2022-08-14T00:23:35.286Z,1007.92
2022-08-14T00:23:53.763Z,1007.92
2022-08-14T00:24:29.069Z,1007.92
2022-08-14T00:24:42.669Z,1007.92
2022-08-14T00:25:14.122Z,1007.92
2022-08-14T00:25:42.512Z,1007.92
2022-08-14T00:26:06.577Z,1007.92
2022-08-14T00:26:34.276Z,1007.92
2022-08-14T00:27:05.523Z,1007.82
2022-08-14T00:27:35.305Z,1007.82
2022-08-14T00:27:54.129Z,1007.82
2022-08-14T00:28:25.457Z,1007.82
2022-08-14T00:28:42.786Z,1007.82
2022-08-14T00:29:13.605Z,1007.82
2022-08-14T00:29:40.640Z,1007.72
2022-08-14T00:30:02.057Z,1007.72
2022-08-14T00:30:33.433Z,1007.72
2022-08-14T00:31:06.606Z,1007.82
2022-08-14T00:31:44.222Z,1007.82
2022-08-14T00:31:56.008Z,1007.82
2022-08-14T00:32:51.041Z,1007.82
2022-08-14T00:33:16.038Z,1007.82
2022-08-14T00:33:51.059Z,1007.72
2022-08-14T00:34:35.534Z,1007.72
2022-08-14T00:34:49.447Z,1007.72
2022-08-14T00:35:22.795Z,1007.72
2022-08-14T00:36:35.083Z,1007.82
2022-08-14T00:36:58.537Z,1007.82
2022-08-14T00:37:29.598Z,1007.82
2022-08-14T00:38:01.938Z,1007.72
2022-08-14T00:38:34.592Z,1007.72
2022-08-14T00:39:06.407Z,1007.92
2022-08-14T00:39:35.401Z,1007.62
2022-08-14T00:39:53.613Z,1007.62
2022-08-14T00:40:32.947Z,1007.62
2022-08-14T00:40:46.255Z,1007.62
2022-08-14T00:41:13.893Z,1007.62
2022-08-14T00:41:36.278Z,1007.62
2022-08-14T00:42:02.268Z,1007.62
2022-08-14T00:42:55.674Z,1007.62
2022-08-14T00:43:05.711Z,1007.62
2022-08-14T00:43:37.375Z,1007.72
2022-08-14T00:44:09.604Z,1007.72
2022-08-14T00:44:35.563Z,1007.62
2022-08-14T00:44:57.385Z,1007.62
2022-08-14T00:45:30.462Z,1007.62
2022-08-14T00:46:01.931Z,1007.52
2022-08-14T00:46:34.527Z,1007.52
2022-08-14T00:47:05.353Z,1007.52
2022-08-14T00:47:43.049Z,1007.42
2022-08-14T00:47:53.483Z,1007.42
2022-08-14T00:48:34.433Z,1007.42
2022-08-14T00:48:43.142Z,1007.72
2022-08-14T00:49:14.476Z,1007.72
2022-08-14T00:49:38.094Z,1007.62
2022-08-14T00:50:02.023Z,1007.62
2022-08-14T00:50:33.454Z,1007.62
2022-08-14T00:51:06.458Z,1007.62
2022-08-14T00:51:38.297Z,1007.62
2022-08-14T00:52:10.051Z,1007.62
2022-08-14T00:52:35.355Z,1007.52
2022-08-14T00:52:57.373Z,1007.52
2022-08-14T00:53:29.399Z,1007.52
2022-08-14T00:54:21.702Z,1007.42
2022-08-14T00:54:35.872Z,1007.62
2022-08-14T00:55:05.360Z,1007.62
2022-08-14T00:55:36.089Z,1007.52
2022-08-14T00:55:53.470Z,1007.52
2022-08-14T00:56:25.985Z,1007.52
2022-08-14T00:56:43.115Z,1007.62
2022-08-14T00:57:13.334Z,1007.62
2022-08-14T00:57:35.357Z,1007.62
2022-08-14T00:58:02.019Z,1007.62
2022-08-14T00:58:34.267Z,1007.62
2022-08-14T00:59:05.347Z,1007.62
2022-08-14T00:59:35.347Z,1007.62
2022-08-14T00:59:53.414Z,1007.62
2022-08-14T01:00:37.447Z,1007.62
2022-08-14T01:00:58.007Z,1007.62
2022-08-14T01:01:30.124Z,1007.62
2022-08-14T01:02:02.015Z,1007.62
2022-08-14T01:02:33.600Z,1007.62
2022-08-14T01:03:05.356Z,1007.52
2022-08-14T01:03:35.198Z,1007.62
2022-08-14T01:03:53.550Z,1007.62
2022-08-14T01:04:52.453Z,1007.62
2022-08-14T01:04:58.443Z,1007.52
2022-08-14T01:05:29.380Z,1007.52
2022-08-14T01:06:01.921Z,1007.52
2022-08-14T01:06:34.956Z,1007.52
2022-08-14T01:07:07.508Z,1007.42
2022-08-14T01:07:47.312Z,1007.42
2022-08-14T01:08:50.683Z,1007.42
2022-08-14T01:09:13.440Z,1007.52
2022-08-14T01:09:35.323Z,1007.52
2022-08-14T01:10:02.622Z,1007.52
2022-08-14T01:10:38.362Z,1007.52
2022-08-14T01:11:05.341Z,1007.31
2022-08-14T01:11:36.373Z,1007.31
2022-08-14T01:12:02.538Z,1007.31
2022-08-14T01:12:27.406Z,1007.31
2022-08-14T01:12:42.779Z,1007.42
2022-08-14T01:13:13.443Z,1007.42
2022-08-14T01:13:42.657Z,1007.31
2022-08-14T01:14:04.778Z,1007.31
2022-08-14T01:14:33.312Z,1007.31
2022-08-14T01:15:05.451Z,1007.52
2022-08-14T01:15:58.369Z,1007.21
2022-08-14T01:16:09.507Z,1007.21
2022-08-14T01:16:35.225Z,1007.31
2022-08-14T01:16:57.327Z,1007.31
2022-08-14T01:17:29.418Z,1007.31
2022-08-14T01:18:02.021Z,1007.42
2022-08-14T01:18:33.399Z,1007.42
2022-08-14T01:19:05.345Z,1007.42
2022-08-14T01:19:35.436Z,1007.31
2022-08-14T01:19:53.908Z,1007.31
2022-08-14T01:20:27.655Z,1007.31
2022-08-14T01:20:42.848Z,1007.31
2022-08-14T01:21:15.565Z,1007.31
2022-08-14T01:21:38.709Z,1007.11
2022-08-14T01:22:02.330Z,1007.11
2022-08-14T01:22:33.441Z,1007.11
2022-08-14T01:23:05.279Z,1007.31
2022-08-14T01:23:46.648Z,1007.42
2022-08-14T01:24:10.985Z,1007.42
2022-08-14T01:24:36.141Z,1007.31
2022-08-14T01:24:57.881Z,1007.31
2022-08-14T01:25:29.361Z,1007.31
2022-08-14T01:26:02.545Z,1007.42
2022-08-14T01:26:35.748Z,1007.42
2022-08-14T01:27:07.113Z,1007.31
2022-08-14T01:27:36.632Z,1007.52
2022-08-14T01:28:11.380Z,1007.52
2022-08-14T01:29:03.565Z,1007.42
2022-08-14T01:29:40.366Z,1007.42
2022-08-14T01:30:17.408Z,1007.31
2022-08-14T01:30:39.911Z,1007.31
2022-08-14T01:31:07.585Z,1007.31
2022-08-14T01:31:37.193Z,1007.42
2022-08-14T01:31:53.388Z,1007.42
2022-08-14T01:32:25.332Z,1007.42
2022-08-14T01:32:42.936Z,1007.42
2022-08-14T01:33:13.359Z,1007.42
2022-08-14T01:33:39.572Z,1007.42
2022-08-14T01:35:18.200Z,1007.42
2022-08-14T01:36:05.586Z,1007.42
2022-08-14T01:36:25.378Z,1007.42
2022-08-14T01:36:43.326Z,1007.31
2022-08-14T01:37:13.948Z,1007.31
2022-08-14T01:37:36.104Z,1007.42
2022-08-14T01:38:01.875Z,1007.42
2022-08-14T01:38:33.325Z,1007.42
2022-08-14T01:39:05.201Z,1007.52
2022-08-14T01:39:35.410Z,1007.31
2022-08-14T01:39:54.486Z,1007.31
2022-08-14T01:40:36.498Z,1007.31
2022-08-14T01:40:57.345Z,1007.52
2022-08-14T01:41:30.217Z,1007.52
2022-08-14T01:42:01.954Z,1007.52
2022-08-14T01:42:36.048Z,1007.52
2022-08-14T01:43:05.331Z,1007.52
2022-08-14T01:43:35.978Z,1007.42
2022-08-14T01:43:56.579Z,1007.42
2022-08-14T01:44:32.800Z,1007.42
2022-08-14T01:44:57.787Z,1007.52
2022-08-14T01:45:29.412Z,1007.52
2022-08-14T01:46:06.872Z,1007.11
2022-08-14T01:46:36.871Z,1007.11
2022-08-14T01:47:07.346Z,1007.31
2022-08-14T01:47:37.245Z,1007.21
2022-08-14T01:48:03.295Z,1007.21
2022-08-14T01:48:25.699Z,1007.21
2022-08-14T01:48:43.526Z,1007.42
2022-08-14T01:49:13.385Z,1007.42
2022-08-14T01:49:46.009Z,1007.21
2022-08-14T01:50:17.306Z,1007.21
2022-08-14T01:50:35.214Z,1007.21
2022-08-14T01:51:05.242Z,1007.21
2022-08-14T01:51:35.255Z,1007.31
2022-08-14T01:51:53.392Z,1007.31
2022-08-14T01:52:34.712Z,1007.31
2022-08-14T01:53:13.350Z,1007.11
2022-08-14T01:53:35.979Z,1007.11
2022-08-14T01:54:01.872Z,1007.11
2022-08-14T01:54:38.120Z,1007.11
2022-08-14T01:55:05.355Z,1007.11
2022-08-14T01:55:35.254Z,1006.84
2022-08-14T01:55:53.395Z,1006.84
2022-08-14T01:56:25.302Z,1006.84
2022-08-14T01:56:43.241Z,1007.11
2022-08-14T01:57:13.350Z,1007.11
2022-08-14T01:57:49.449Z,1007.01
2022-08-14T01:58:19.781Z,1007.01
2022-08-14T01:58:35.363Z,1007.21
2022-08-14T01:59:05.258Z,1007.21
2022-08-14T01:59:37.795Z,1007.21
2022-08-14T02:00:09.746Z,1007.21
2022-08-14T02:00:36.130Z,1007.01
2022-08-14T02:00:57.283Z,1007.01
2022-08-14T02:01:29.525Z,1007.01
2022-08-14T02:02:01.947Z,1007.11
2022-08-14T02:02:34.005Z,1007.11
2022-08-14T02:03:06.785Z,1006.94
2022-08-14T02:03:35.905Z,1006.94
2022-08-14T02:03:57.166Z,1006.94
2022-08-14T02:04:54.702Z,1006.94
2022-08-14T02:05:13.318Z,1007.11
2022-08-14T02:05:38.248Z,1006.94
2022-08-14T02:06:04.242Z,1006.94
2022-08-14T02:06:36.148Z,1007.01
2022-08-14T02:07:05.564Z,1007.01
2022-08-14T02:07:55.547Z,1007.01
2022-08-14T02:08:10.335Z,1007.01
2022-08-14T02:08:35.830Z,1006.84
2022-08-14T02:08:57.307Z,1006.84
2022-08-14T02:09:29.300Z,1006.84
2022-08-14T02:10:01.925Z,1006.84
2022-08-14T02:10:33.570Z,1006.84
2022-08-14T02:11:05.374Z,1006.64
2022-08-14T02:11:35.671Z,1006.84
2022-08-14T02:11:54.622Z,1006.84
2022-08-14T02:12:26.390Z,1006.84
2022-08-14T02:12:43.611Z,1006.64
2022-08-14T02:13:13.337Z,1006.64
2022-08-14T02:13:37.630Z,1006.53
2022-08-14T02:14:07.015Z,1006.53
2022-08-14T02:14:33.487Z,1006.53
2022-08-14T02:15:05.643Z,1006.74
2022-08-14T02:15:35.450Z,1006.74
2022-08-14T02:15:53.381Z,1006.74
2022-08-14T02:16:25.312Z,1006.74
2022-08-14T02:16:57.287Z,1006.64
2022-08-14T02:17:31.040Z,1006.64
2022-08-14T02:18:01.866Z,1006.64
2022-08-14T02:18:35.145Z,1006.64
2022-08-14T02:19:05.311Z,1006.74
2022-08-14T02:19:35.379Z,1006.74
2022-08-14T02:19:53.354Z,1006.74
2022-08-14T02:20:25.238Z,1006.74
2022-08-14T02:20:42.448Z,1006.64
2022-08-14T02:21:13.337Z,1006.64
2022-08-14T02:21:39.554Z,1006.64
2022-08-14T02:22:02.785Z,1006.64
2022-08-14T02:22:33.949Z,1006.64
2022-08-14T02:23:05.290Z,1006.64
2022-08-14T02:23:36.452Z,1006.43
2022-08-14T02:23:53.852Z,1006.43
2022-08-14T02:24:39.154Z,1006.43
2022-08-14T02:24:57.288Z,1006.43
2022-08-14T02:25:31.077Z,1006.43
2022-08-14T02:26:24.963Z,1006.43
2022-08-14T02:28:18.923Z,1006.43
2022-08-14T02:28:57.355Z,1006.64
2022-08-14T02:29:14.093Z,1006.64
2022-08-14T02:30:00.604Z,1006.33
2022-08-14T02:30:18.663Z,1006.33
2022-08-14T02:30:38.320Z,1006.64
2022-08-14T02:31:05.208Z,1006.64
2022-08-14T02:31:42.191Z,1006.64
2022-08-14T02:31:53.430Z,1006.64
2022-08-14T02:32:35.908Z,1006.64
2022-08-14T02:32:42.904Z,1006.53
2022-08-14T02:33:14.163Z,1006.53
2022-08-14T02:33:39.104Z,1006.64
2022-08-14T02:34:05.786Z,1006.64
2022-08-14T02:34:36.446Z,1006.64
2022-08-14T02:35:05.495Z,1006.53
2022-08-14T02:35:40.976Z,1006.43
2022-08-14T02:36:04.943Z,1006.43
2022-08-14T02:37:02.486Z,1006.43
2022-08-14T02:37:13.379Z,1006.64
2022-08-14T02:37:47.985Z,1006.64
2022-08-14T02:38:06.136Z,1006.64
2022-08-14T02:38:39.228Z,1006.64
2022-08-14T02:39:16.308Z,1006.53
2022-08-14T02:39:36.193Z,1006.43
2022-08-14T02:39:54.492Z,1006.43
2022-08-14T02:40:32.200Z,1006.43
2022-08-14T02:40:45.529Z,1006.74
2022-08-14T02:41:13.594Z,1006.74
2022-08-14T02:42:13.130Z,1006.43
2022-08-14T02:42:17.315Z,1006.43
2022-08-14T02:42:38.899Z,1006.53
2022-08-14T02:43:06.461Z,1006.53
2022-08-14T02:43:37.123Z,1006.74
2022-08-14T02:43:53.241Z,1006.74
2022-08-14T02:44:29.706Z,1006.74
2022-08-14T02:44:43.065Z,1006.53
2022-08-14T02:45:14.241Z,1006.53
2022-08-14T02:45:38.864Z,1006.74
2022-08-14T02:46:02.732Z,1006.74
2022-08-14T02:46:33.829Z,1006.74
2022-08-14T02:47:07.142Z,1006.53
2022-08-14T02:47:36.031Z,1006.74
2022-08-14T02:49:01.122Z,1006.74
2022-08-14T02:49:13.313Z,1006.74
2022-08-14T02:49:36.402Z,1006.64
2022-08-14T02:50:03.121Z,1006.64
2022-08-14T02:50:34.009Z,1006.64
2022-08-14T02:51:05.255Z,1006.64
2022-08-14T02:51:36.766Z,1006.53
2022-08-14T02:51:53.367Z,1006.53
2022-08-14T02:52:55.923Z,1006.53
2022-08-14T02:53:13.522Z,1006.84
2022-08-14T02:53:37.388Z,1006.64
2022-08-14T02:54:01.922Z,1006.64
2022-08-14T02:54:34.376Z,1006.64
2022-08-14T02:55:05.229Z,1006.33
2022-08-14T02:55:36.962Z,1006.53
2022-08-14T02:56:10.240Z,1006.53
2022-08-14T02:57:16.655Z,1006.64
2022-08-14T02:57:45.404Z,1006.43
2022-08-14T02:58:21.419Z,1006.43
2022-08-14T02:58:35.248Z,1006.64
2022-08-14T02:59:05.666Z,1006.64
2022-08-14T02:59:36.115Z,1006.33
2022-08-14T02:59:53.279Z,1006.33
2022-08-14T03:00:25.353Z,1006.33
2022-08-14T03:00:43.008Z,1006.33
2022-08-14T03:01:13.259Z,1006.33
2022-08-14T03:01:43.256Z,1006.64
2022-08-14T03:02:02.055Z,1006.64
2022-08-14T03:02:56.224Z,1006.64
2022-08-14T03:03:07.849Z,1006.33
2022-08-14T03:03:35.482Z,1006.43
2022-08-14T03:03:53.327Z,1006.43
2022-08-14T03:04:26.255Z,1006.43
2022-08-14T03:04:57.323Z,1006.53
2022-08-14T03:05:30.173Z,1006.53
2022-08-14T03:06:01.899Z,1006.43
2022-08-14T03:06:48.952Z,1006.43
2022-08-14T03:07:07.764Z,1006.43
2022-08-14T03:07:35.252Z,1006.64
2022-08-14T03:08:09.407Z,1006.64
2022-08-14T03:08:35.313Z,1006.43
2022-08-14T03:08:57.279Z,1006.43
2022-08-14T03:09:42.261Z,1006.43
2022-08-14T03:10:34.040Z,1006.43
2022-08-14T03:11:05.948Z,1006.53
2022-08-14T03:11:35.406Z,1006.43
2022-08-14T03:11:54.243Z,1006.43
2022-08-14T03:12:31.218Z,1006.43
2022-08-14T03:12:42.544Z,1006.43
2022-08-14T03:13:19.466Z,1006.43
2022-08-14T03:13:35.795Z,1006.23
2022-08-14T03:14:01.766Z,1006.23
2022-08-14T03:14:34.098Z,1006.23
2022-08-14T03:15:05.364Z,1006.33
2022-08-14T03:15:36.242Z,1006.43
2022-08-14T03:15:55.171Z,1006.43
2022-08-14T03:16:26.723Z,1006.43
2022-08-14T03:16:43.193Z,1006.43
2022-08-14T03:17:13.192Z,1006.43
2022-08-14T03:17:41.110Z,1006.64
2022-08-14T03:18:01.736Z,1006.64
2022-08-14T03:18:33.274Z,1006.64
2022-08-14T03:19:06.269Z,1006.43
2022-08-14T03:19:35.456Z,1006.53
2022-08-14T03:19:53.441Z,1006.53
2022-08-14T03:20:25.247Z,1006.53
2022-08-14T03:20:42.562Z,1006.53
2022-08-14T03:21:13.314Z,1006.53
2022-08-14T03:21:35.416Z,1006.53
2022-08-14T03:22:01.967Z,1006.53
2022-08-14T03:22:33.260Z,1006.53
2022-08-14T03:23:05.340Z,1006.33
2022-08-14T03:23:37.990Z,1006.23
2022-08-14T03:23:53.475Z,1006.23
2022-08-14T03:24:25.373Z,1006.23
2022-08-14T03:24:43.687Z,1006.64
2022-08-14T03:25:13.202Z,1006.64
2022-08-14T03:25:37.605Z,1006.33
2022-08-14T03:26:02.499Z,1006.33
2022-08-14T03:26:33.145Z,1006.33
2022-08-14T03:27:05.422Z,1006.43
2022-08-14T03:27:48.238Z,1006.53
2022-08-14T03:28:14.615Z,1006.53
2022-08-14T03:28:36.725Z,1006.53
2022-08-14T03:28:57.294Z,1006.53
2022-08-14T03:29:30.449Z,1006.53
2022-08-14T03:30:05.367Z,1006.33
2022-08-14T03:30:39.223Z,1006.33
2022-08-14T03:31:08.398Z,1006.33
2022-08-14T03:31:35.373Z,1006.53
2022-08-14T03:31:53.365Z,1006.53
2022-08-14T03:32:30.399Z,1006.53
2022-08-14T03:32:43.514Z,1006.53
2022-08-14T03:33:13.276Z,1006.53
2022-08-14T03:33:37.956Z,1006.53
2022-08-14T03:34:01.589Z,1006.53
2022-08-14T03:34:47.833Z,1006.53
2022-08-14T03:35:08.818Z,1006.64
2022-08-14T03:35:39.749Z,1006.64
2022-08-14T03:36:05.686Z,1006.64
2022-08-14T03:39:12.817Z,1006.64
2022-08-14T03:39:22.998Z,1006.53
2022-08-14T03:39:54.283Z,1006.43
2022-08-14T03:40:25.156Z,1006.43
2022-08-14T03:40:42.655Z,1006.43
2022-08-14T03:41:16.028Z,1006.43
2022-08-14T03:41:35.208Z,1006.33
2022-08-14T03:42:02.013Z,1006.33
2022-08-14T03:42:46.298Z,1006.33
2022-08-14T03:43:05.179Z,1006.43
2022-08-14T03:43:35.569Z,1006.64
2022-08-14T03:43:57.086Z,1006.64
2022-08-14T03:45:26.480Z,1006.64
2022-08-14T03:45:48.552Z,1006.53
2022-08-14T03:46:52.692Z,1006.53
2022-08-14T03:47:05.175Z,1006.53
2022-08-14T03:47:46.578Z,1006.74
2022-08-14T03:48:29.504Z,1006.74
2022-08-14T03:48:40.145Z,1006.43
2022-08-14T03:48:59.497Z,1006.43
2022-08-14T03:49:29.916Z,1006.43
2022-08-14T03:50:01.468Z,1006.53
2022-08-14T03:50:33.125Z,1006.53
2022-08-14T03:51:05.160Z,1006.64
2022-08-14T03:51:35.993Z,1006.33
2022-08-14T03:51:53.215Z,1006.33
2022-08-14T03:52:39.081Z,1006.33
2022-08-14T03:53:14.074Z,1006.33
2022-08-14T03:53:37.212Z,1006.33
2022-08-14T03:54:02.613Z,1006.33
2022-08-14T03:54:34.098Z,1006.33
2022-08-14T03:55:05.153Z,1006.43
2022-08-14T03:55:35.672Z,1006.33
2022-08-14T03:55:53.224Z,1006.33
2022-08-14T03:56:26.121Z,1006.33
2022-08-14T03:56:57.296Z,1006.53
2022-08-14T03:57:29.213Z,1006.53
2022-08-14T03:58:01.464Z,1006.43
2022-08-14T03:58:36.747Z,1006.43
2022-08-14T03:59:05.143Z,1006.23
2022-08-14T03:59:35.533Z,1006.43
2022-08-14T03:59:53.230Z,1006.43
2022-08-14T04:00:43.933Z,1006.43
2022-08-14T04:00:57.307Z,1006.43
2022-08-14T04:01:39.173Z,1006.43
2022-08-14T04:02:04.556Z,1006.33
2022-08-14T04:02:37.467Z,1006.33
2022-08-14T04:03:06.480Z,1006.53
2022-08-14T04:03:37.393Z,1006.64
2022-08-14T04:04:09.379Z,1006.64
2022-08-14T04:04:36.050Z,1006.43
2022-08-14T04:04:57.302Z,1006.43
2022-08-14T04:05:29.441Z,1006.43
2022-08-14T04:06:01.753Z,1006.23
2022-08-14T04:06:33.978Z,1006.23
2022-08-14T04:07:05.121Z,1006.33
2022-08-14T04:07:36.074Z,1006.43
2022-08-14T04:08:08.417Z,1006.43
2022-08-14T04:08:35.234Z,1006.43
2022-08-14T04:08:58.223Z,1006.43
2022-08-14T04:09:29.418Z,1006.43
2022-08-14T04:10:02.902Z,1006.43
2022-08-14T04:10:33.306Z,1006.43
2022-08-14T04:11:07.784Z,1006.43
2022-08-14T04:11:37.283Z,1006.23
2022-08-14T04:12:13.296Z,1006.23
2022-08-14T04:12:36.183Z,1006.43
2022-08-14T04:12:57.268Z,1006.43
2022-08-14T04:13:31.979Z,1006.43
2022-08-14T04:14:01.913Z,1006.43
2022-08-14T04:14:37.328Z,1006.43
2022-08-14T04:15:05.471Z,1006.53
2022-08-14T04:15:52.861Z,1006.53
2022-08-14T04:16:12.475Z,1006.53
2022-08-14T04:16:38.562Z,1006.43
2022-08-14T04:16:57.268Z,1006.43
2022-08-14T04:17:29.488Z,1006.43
2022-08-14T04:18:01.668Z,1006.43
2022-08-14T04:18:33.945Z,1006.43
2022-08-14T04:19:06.479Z,1006.23
2022-08-14T04:19:36.611Z,1006.33
2022-08-14T04:19:53.397Z,1006.33
2022-08-14T04:20:25.582Z,1006.33
2022-08-14T04:20:51.513Z,1006.43
2022-08-14T04:21:13.556Z,1006.43
2022-08-14T04:21:56.246Z,1006.53
2022-08-14T04:22:18.262Z,1006.53
2022-08-14T04:22:36.917Z,1006.33
2022-08-14T04:23:05.375Z,1006.33
2022-08-14T04:23:35.413Z,1006.53
2022-08-14T04:23:58.018Z,1006.53
2022-08-14T04:24:25.881Z,1006.53
2022-08-14T04:24:43.248Z,1006.43
2022-08-14T04:25:13.935Z,1006.43
2022-08-14T04:25:35.566Z,1006.23
2022-08-14T04:26:02.700Z,1006.23
2022-08-14T04:26:42.239Z,1006.23
2022-08-14T04:27:06.257Z,1006.43
2022-08-14T04:27:48.608Z,1006.43
2022-08-14T04:28:09.465Z,1006.43
2022-08-14T04:29:14.809Z,1006.23
2022-08-14T04:29:35.933Z,1006.33
2022-08-14T04:30:01.971Z,1006.33
2022-08-14T04:30:33.352Z,1006.33
2022-08-14T04:31:05.452Z,1006.33
2022-08-14T04:32:57.796Z,1006.13
2022-08-14T04:33:18.571Z,1006.23
2022-08-14T04:33:36.280Z,1006.64
2022-08-14T04:34:01.575Z,1006.64
2022-08-14T04:34:33.481Z,1006.64
2022-08-14T04:35:07.583Z,1006.43
2022-08-14T04:35:56.226Z,1006.23
2022-08-14T04:36:09.606Z,1006.23
2022-08-14T04:36:36.300Z,1006.33
2022-08-14T04:36:57.239Z,1006.33
2022-08-14T04:37:29.322Z,1006.33
2022-08-14T04:38:01.759Z,1006.23
2022-08-14T04:38:36.610Z,1006.23
2022-08-14T04:39:06.490Z,1006.43
2022-08-14T04:39:35.891Z,1006.13
2022-08-14T04:39:57.385Z,1006.13
2022-08-14T04:40:27.816Z,1006.13
2022-08-14T04:40:43.443Z,1006.33
2022-08-14T04:41:15.595Z,1006.33
2022-08-14T04:41:37.078Z,1006.43
2022-08-14T04:42:01.921Z,1006.43
2022-08-14T04:42:33.583Z,1006.43
2022-08-14T04:43:06.336Z,1006.23
2022-08-14T04:43:38.971Z,1006.13
2022-08-14T04:43:53.397Z,1006.13
2022-08-14T04:44:26.830Z,1006.13
2022-08-14T04:44:43.757Z,1006.33
2022-08-14T04:45:14.439Z,1006.33
2022-08-14T04:45:52.218Z,1006.23
2022-08-14T04:46:57.096Z,1006.23
2022-08-14T04:47:04.966Z,1006.13
2022-08-14T04:47:35.422Z,1006.23
2022-08-14T04:47:53.743Z,1006.23
2022-08-14T04:48:38.982Z,1006.23
2022-08-14T04:48:59.692Z,1006.33
2022-08-14T04:49:29.652Z,1006.33
2022-08-14T04:50:03.327Z,1006.23
2022-08-14T04:50:43.453Z,1006.23
2022-08-14T04:51:05.404Z,1006.23
2022-08-14T04:51:47.046Z,1006.33
2022-08-14T04:52:15.546Z,1006.33
2022-08-14T04:52:37.427Z,1006.43
2022-08-14T04:52:57.355Z,1006.43
2022-08-14T04:53:34.743Z,1006.43
2022-08-14T04:54:01.490Z,1006.13
2022-08-14T04:54:33.322Z,1006.13
2022-08-14T04:55:06.544Z,1006.23
2022-08-14T04:55:35.497Z,1006.13
2022-08-14T04:55:53.589Z,1006.13
2022-08-14T04:56:31.476Z,1006.13
2022-08-14T04:56:42.827Z,1006.13
2022-08-14T04:57:13.373Z,1006.13
2022-08-14T04:57:35.352Z,1006.33
2022-08-14T04:58:01.947Z,1006.33
2022-08-14T04:58:35.547Z,1006.33
2022-08-14T04:59:10.423Z,1006.13
2022-08-14T04:59:35.687Z,1006.23
2022-08-14T04:59:54.523Z,1006.23
2022-08-14T05:00:25.341Z,1006.23
2022-08-14T05:00:42.774Z,1006.43
2022-08-14T05:01:22.180Z,1006.43
2022-08-14T05:01:40.045Z,1006.13
2022-08-14T05:02:02.125Z,1006.13
2022-08-14T05:02:34.695Z,1006.13
2022-08-14T05:03:07.477Z,1006.23
2022-08-14T05:03:35.421Z,1006.33
2022-08-14T05:03:53.466Z,1006.33
2022-08-14T05:04:25.742Z,1006.33
2022-08-14T05:04:45.536Z,1006.53
2022-08-14T05:05:14.235Z,1006.53
2022-08-14T05:05:36.250Z,1006.33
2022-08-14T05:06:03.117Z,1006.33
2022-08-14T05:06:37.133Z,1006.33
2022-08-14T05:07:06.074Z,1006.23
2022-08-14T05:07:53.877Z,1006.23
2022-08-14T05:08:09.776Z,1006.23
2022-08-14T05:08:57.407Z,1006.23
2022-08-14T05:09:14.411Z,1006.23
2022-08-14T05:09:35.580Z,1006.33
2022-08-14T05:10:01.689Z,1006.33
2022-08-14T05:10:34.409Z,1006.33
2022-08-14T05:11:05.220Z,1006.33
2022-08-14T05:11:36.699Z,1006.43
2022-08-14T05:13:10.989Z,1006.43
2022-08-14T05:13:30.189Z,1006.43
2022-08-14T05:14:33.824Z,1006.33
2022-08-14T05:15:05.523Z,1006.23
2022-08-14T05:15:35.412Z,1006.33
2022-08-14T05:15:54.229Z,1006.33
2022-08-14T05:16:25.290Z,1006.33
2022-08-14T05:16:42.750Z,1006.23
2022-08-14T05:17:13.722Z,1006.23
2022-08-14T05:17:44.155Z,1006.33
2022-08-14T05:18:16.921Z,1006.33
2022-08-14T05:19:19.125Z,1006.53
2022-08-14T05:19:44.163Z,1006.43
2022-08-14T05:21:55.432Z,1006.43
2022-08-14T05:22:16.737Z,1006.33
2022-08-14T05:22:33.429Z,1006.33
2022-08-14T05:23:07.066Z,1006.23
2022-08-14T05:23:35.414Z,1006.53
2022-08-14T05:23:54.132Z,1006.53
2022-08-14T05:24:25.250Z,1006.53
2022-08-14T05:24:42.813Z,1006.23
2022-08-14T05:25:13.260Z,1006.23
2022-08-14T05:25:36.566Z,1006.43
2022-08-14T05:26:01.617Z,1006.43
2022-08-14T05:26:33.358Z,1006.43
2022-08-14T05:27:05.829Z,1006.43
2022-08-14T05:27:35.915Z,1006.33
2022-08-14T05:27:54.047Z,1006.33
2022-08-14T05:28:25.258Z,1006.33
2022-08-14T05:28:42.777Z,1006.33
2022-08-14T05:29:13.426Z,1006.33
2022-08-14T05:29:35.760Z,1006.23
2022-08-14T05:30:02.236Z,1006.23
2022-08-14T05:30:33.392Z,1006.23
2022-08-14T05:31:05.396Z,1006.13
2022-08-14T05:31:39.477Z,1006.03
2022-08-14T05:32:08.870Z,1006.03
2022-08-14T05:32:27.734Z,1006.03
2022-08-14T05:32:42.948Z,1006.33
2022-08-14T05:33:14.151Z,1006.33
2022-08-14T05:33:35.441Z,1006.03
2022-08-14T05:34:01.632Z,1006.03
2022-08-14T05:34:33.267Z,1006.03
2022-08-14T05:35:05.191Z,1006.23
2022-08-14T05:35:36.650Z,1006.13
2022-08-14T05:35:53.286Z,1006.13
2022-08-14T05:36:25.288Z,1006.13
2022-08-14T05:36:43.467Z,1006.33
2022-08-14T05:37:13.300Z,1006.33
2022-08-14T05:37:35.549Z,1006.13
2022-08-14T05:38:01.630Z,1006.13
2022-08-14T05:38:35.219Z,1006.13
2022-08-14T05:39:05.256Z,1006.23
2022-08-14T05:39:36.262Z,1006.13
2022-08-14T05:39:53.510Z,1006.13
2022-08-14T05:40:25.264Z,1006.13
2022-08-14T05:40:43.251Z,1006.23
2022-08-14T05:41:13.254Z,1006.23
2022-08-14T05:41:51.037Z,1006.13
2022-08-14T05:42:01.593Z,1006.13
2022-08-14T05:42:34.214Z,1006.13
2022-08-14T05:43:06.891Z,1006.13
2022-08-14T05:43:41.238Z,1006.23
2022-08-14T05:43:53.428Z,1006.23
2022-08-14T05:44:29.565Z,1006.23
2022-08-14T05:44:42.898Z,1006.13
2022-08-14T05:45:18.498Z,1006.13
2022-08-14T05:45:35.488Z,1006.33
2022-08-14T05:46:02.565Z,1006.33
2022-08-14T05:46:33.295Z,1006.33
2022-08-14T05:47:05.389Z,1006.23
2022-08-14T05:47:39.317Z,1006.33
2022-08-14T05:47:53.498Z,1006.33
2022-08-14T05:48:32.845Z,1006.33
2022-08-14T05:48:43.604Z,1006.23
2022-08-14T05:49:13.402Z,1006.23
2022-08-14T05:49:35.645Z,1006.33
2022-08-14T05:50:01.559Z,1006.33
2022-08-14T05:50:33.596Z,1006.33
2022-08-14T05:51:06.775Z,1006.23
2022-08-14T05:51:35.417Z,1006.03
2022-08-14T05:51:53.514Z,1006.03
2022-08-14T05:52:39.077Z,1006.03
2022-08-14T05:52:58.339Z,1006.13
2022-08-14T05:53:32.274Z,1006.13
2022-08-14T05:54:13.684Z,1006.23
2022-08-14T05:54:35.263Z,1006.23
2022-08-14T05:55:05.267Z,1006.03
2022-08-14T05:55:36.792Z,1006.13
2022-08-14T05:55:53.695Z,1006.13
2022-08-14T05:56:25.359Z,1006.13
2022-08-14T05:56:42.765Z,1006.23
2022-08-14T05:57:13.265Z,1006.23
2022-08-14T05:57:39.718Z,1006.33
2022-08-14T05:58:01.660Z,1006.33
2022-08-14T05:58:33.828Z,1006.33
2022-08-14T05:59:05.202Z,1006.13